Time;durP1;ratioP1;P1;durP2;ratioP2;P2;SDS_P1;SDS_P2;PMS_P1;PMS_P2;Temp;Humidity;BMP_temperature;BMP_pressure;BME280_temperature;BME280_humidity;BME280_pressure;Samples;Min_cycle;Max_cycle;Signal;HPM_P1;HPM_P2
2021/08/15 00:02:17;;;;;;;8.50;7.70;;;20.20;99.90;;;;;;5070441;28;20474;-69
2021/08/15 00:04:43;;;;;;;8.53;7.73;;;20.10;99.90;;;;;;5070672;28;20466;-70
2021/08/15 00:07:11;;;;;;;8.43;7.63;;;20.10;99.90;;;;;;5070551;28;20483;-69
2021/08/15 00:09:38;;;;;;;8.33;7.60;;;20.10;99.90;;;;;;5070379;28;20461;-70
2021/08/15 00:12:06;;;;;;;8.97;7.87;;;20.00;99.90;;;;;;5070590;28;20469;-70
2021/08/15 00:14:33;;;;;;;8.33;7.53;;;20.00;99.90;;;;;;5070454;28;20462;-70
2021/08/15 00:17:00;;;;;;;9.60;8.70;;;20.00;99.90;;;;;;5069673;28;20497;-70
2021/08/15 00:19:27;;;;;;;9.13;8.23;;;19.90;99.90;;;;;;5069949;28;20968;-70
2021/08/15 00:21:54;;;;;;;9.47;8.47;;;19.90;99.90;;;;;;5070681;28;20459;-70
2021/08/15 00:24:22;;;;;;;8.80;8.00;;;19.90;99.90;;;;;;5070449;28;20462;-70
2021/08/15 00:26:49;;;;;;;8.40;7.47;;;19.90;99.90;;;;;;5070278;28;21028;-70
2021/08/15 00:29:16;;;;;;;9.07;8.27;;;19.80;99.90;;;;;;5069576;28;20459;-70
2021/08/15 00:31:42;;;;;;;8.73;7.90;;;19.80;99.90;;;;;;5070058;28;20463;-70
2021/08/15 00:34:09;;;;;;;9.70;8.70;;;19.80;99.90;;;;;;5070385;28;20883;-70
2021/08/15 00:36:36;;;;;;;8.90;8.00;;;19.80;99.90;;;;;;5069899;28;21452;-70
2021/08/15 00:39:03;;;;;;;11.20;8.57;;;19.80;99.90;;;;;;5069739;28;20454;-70
2021/08/15 00:41:31;;;;;;;10.70;8.27;;;19.80;99.90;;;;;;5070187;28;20458;-70
2021/08/15 00:44:00;;;;;;;10.57;8.43;;;19.80;99.90;;;;;;5069971;28;20980;-69
2021/08/15 00:46:27;;;;;;;9.43;8.53;;;19.80;99.90;;;;;;5069631;28;21005;-70
2021/08/15 00:48:53;;;;;;;8.47;7.67;;;19.70;99.90;;;;;;5069423;28;20466;-70
2021/08/15 00:51:20;;;;;;;10.00;9.10;;;19.60;99.90;;;;;;5069525;28;20462;-70
2021/08/15 00:53:48;;;;;;;8.80;7.50;;;19.60;99.90;;;;;;5069288;28;20457;-70
2021/08/15 00:56:15;;;;;;;9.00;8.10;;;19.50;99.90;;;;;;5069302;28;20989;-70
2021/08/15 00:58:43;;;;;;;9.00;8.20;;;19.50;99.90;;;;;;5068830;28;20494;-70
2021/08/15 01:01:11;;;;;;;9.27;8.47;;;19.50;99.90;;;;;;5069136;28;20462;-69
2021/08/15 01:03:39;;;;;;;9.67;8.77;;;19.40;99.90;;;;;;5069295;28;20463;-70
2021/08/15 01:06:08;;;;;;;8.93;8.03;;;19.40;99.90;;;;;;5069099;28;20478;-70
2021/08/15 01:08:35;;;;;;;8.53;7.63;;;19.40;99.90;;;;;;5068488;28;20470;-70
2021/08/15 01:11:05;;;;;;;9.50;8.60;;;19.30;99.90;;;;;;5069305;28;20466;-70
2021/08/15 01:13:32;;;;;;;10.60;9.07;;;19.30;99.90;;;;;;5069068;28;20470;-69
2021/08/15 01:16:00;;;;;;;8.43;7.67;;;19.20;99.90;;;;;;5068881;28;20489;-70
2021/08/15 01:18:29;;;;;;;9.30;8.10;;;19.30;99.90;;;;;;5068306;28;20462;-70
2021/08/15 01:20:58;;;;;;;9.20;7.90;;;19.30;99.90;;;;;;5069093;28;20465;-70
2021/08/15 01:23:24;;;;;;;10.43;7.80;;;19.30;99.90;;;;;;5068686;28;20962;-69
2021/08/15 01:25:52;;;;;;;9.37;8.47;;;19.20;99.90;;;;;;5068744;28;20565;-69
2021/08/15 01:28:21;;;;;;;9.13;8.33;;;19.20;99.90;;;;;;5068223;28;20459;-69
2021/08/15 01:30:49;;;;;;;8.03;7.33;;;19.20;99.90;;;;;;5068783;28;20470;-69
2021/08/15 01:33:26;;;;;;;8.80;8.00;;;19.20;99.90;;;;;;5068886;28;20949;-69
2021/08/15 01:35:54;;;;;;;8.50;7.60;;;19.20;99.90;;;;;;5068787;28;20836;-69
2021/08/15 01:38:21;;;;;;;8.43;7.63;;;19.20;99.90;;;;;;5068372;28;20462;-69
2021/08/15 01:40:47;;;;;;;8.40;7.53;;;19.20;99.90;;;;;;5068412;28;20467;-69
2021/08/15 01:43:14;;;;;;;9.03;8.13;;;19.20;99.90;;;;;;5068937;28;20470;-69
2021/08/15 01:45:42;;;;;;;8.40;7.20;;;19.20;99.90;;;;;;5068348;28;20490;-69
2021/08/15 01:48:09;;;;;;;9.03;8.13;;;19.20;99.90;;;;;;5068296;28;20858;-69
2021/08/15 01:50:36;;;;;;;9.03;8.23;;;19.10;99.90;;;;;;5068497;28;20463;-69
2021/08/15 01:53:06;;;;;;;9.10;8.07;;;19.10;99.90;;;;;;5069025;28;20466;-69
2021/08/15 01:55:33;;;;;;;9.80;8.80;;;19.10;99.90;;;;;;5068796;28;20486;-69
2021/08/15 01:58:00;;;;;;;11.10;8.60;;;19.00;99.90;;;;;;5068116;28;20545;-69
2021/08/15 02:00:26;;;;;;;8.50;7.63;;;19.00;99.90;;;;;;5068698;28;20454;-70
2021/08/15 02:02:54;;;;;;;8.87;7.97;;;18.90;99.90;;;;;;5069211;28;20475;-69
2021/08/15 02:05:21;;;;;;;8.90;8.00;;;18.90;99.90;;;;;;5068829;28;20484;-69
2021/08/15 02:07:54;;;;;;;8.30;7.60;;;18.90;99.90;;;;;;5069073;28;20830;-69
2021/08/15 02:10:21;;;;;;;9.27;8.37;;;18.90;99.90;;;;;;5069127;28;21068;-69
2021/08/15 02:12:48;;;;;;;9.07;8.10;;;18.90;99.90;;;;;;5069162;28;20458;-69
2021/08/15 02:15:15;;;;;;;9.33;8.40;;;18.80;99.90;;;;;;5069103;28;20469;-70
2021/08/15 02:17:41;;;;;;;10.17;9.17;;;18.80;99.90;;;;;;5068333;28;20486;-69
2021/08/15 02:20:10;;;;;;;9.83;8.67;;;18.80;99.90;;;;;;5069272;28;20473;-69
2021/08/15 02:22:37;;;;;;;9.30;8.43;;;18.80;99.90;;;;;;5069194;28;20465;-70
2021/08/15 02:25:06;;;;;;;9.10;8.30;;;18.70;99.90;;;;;;5069057;28;20467;-69
2021/08/15 02:27:32;;;;;;;9.13;8.17;;;18.80;99.90;;;;;;5068420;28;20478;-70
2021/08/15 02:29:59;;;;;;;9.90;8.90;;;18.70;99.90;;;;;;5069100;28;20463;-70
2021/08/15 02:32:26;;;;;;;9.97;8.83;;;18.70;99.90;;;;;;5069157;28;20462;-70
2021/08/15 02:34:52;;;;;;;9.33;8.43;;;18.60;99.90;;;;;;5068953;28;20455;-70
2021/08/15 02:37:20;;;;;;;9.70;8.70;;;18.60;99.90;;;;;;5068254;28;20490;-69
2021/08/15 02:39:47;;;;;;;9.43;8.53;;;18.60;99.90;;;;;;5068859;28;20471;-69
2021/08/15 02:42:14;;;;;;;11.30;9.40;;;18.50;99.90;;;;;;5068897;28;20469;-69
2021/08/15 02:44:42;;;;;;;8.80;7.90;;;18.50;99.90;;;;;;5068832;28;20969;-69
2021/08/15 02:47:09;;;;;;;9.73;8.73;;;18.50;99.90;;;;;;5068871;28;20908;-70
2021/08/15 02:49:37;;;;;;;8.70;7.80;;;18.50;99.90;;;;;;5068873;28;20458;-70
2021/08/15 02:52:04;;;;;;;10.43;9.43;;;18.50;99.90;;;;;;5070311;28;20466;-70
2021/08/15 02:54:32;;;;;;;10.50;9.40;;;18.40;99.90;;;;;;5072678;28;20454;-69
2021/08/15 02:56:59;;;;;;;10.67;9.57;;;18.40;99.90;;;;;;5072090;28;20490;-70
2021/08/15 02:59:25;;;;;;;10.03;8.93;;;18.40;99.90;;;;;;5072121;28;20461;-69
2021/08/15 03:01:52;;;;;;;8.93;8.13;;;18.40;99.90;;;;;;5072148;28;20473;-70
2021/08/15 03:04:19;;;;;;;10.10;8.60;;;18.40;99.90;;;;;;5072651;28;20469;-70
2021/08/15 03:06:45;;;;;;;9.50;7.93;;;18.40;99.90;;;;;;5071965;28;20470;-70
2021/08/15 03:09:12;;;;;;;9.53;8.47;;;18.40;99.90;;;;;;5072063;28;20469;-69
2021/08/15 03:11:40;;;;;;;10.93;9.13;;;18.40;99.90;;;;;;5072211;28;20458;-69
2021/08/15 03:14:07;;;;;;;10.43;8.33;;;18.40;99.90;;;;;;5072055;28;20489;-70
2021/08/15 03:16:34;;;;;;;9.07;8.13;;;18.40;99.90;;;;;;5072035;28;20481;-69
2021/08/15 03:19:00;;;;;;;10.10;9.10;;;18.40;99.90;;;;;;5071418;28;20830;-70
2021/08/15 03:21:29;;;;;;;9.30;8.40;;;18.40;99.90;;;;;;5072223;28;20463;-70
2021/08/15 03:23:56;;;;;;;12.97;9.30;;;18.50;99.90;;;;;;5071869;28;20462;-70
2021/08/15 03:26:23;;;;;;;9.93;8.30;;;18.50;99.90;;;;;;5071900;28;20485;-69
2021/08/15 03:28:51;;;;;;;10.10;9.07;;;18.50;99.90;;;;;;5071231;28;20469;-69
2021/08/15 03:31:18;;;;;;;8.60;7.67;;;18.50;99.90;;;;;;5071805;28;20470;-70
2021/08/15 03:33:44;;;;;;;9.00;8.20;;;18.50;99.90;;;;;;5071375;28;20459;-70
2021/08/15 03:36:11;;;;;;;9.20;8.30;;;18.40;99.90;;;;;;5071469;28;20516;-69
2021/08/15 03:38:38;;;;;;;9.77;8.87;;;18.40;99.90;;;;;;5070651;28;20497;-69
2021/08/15 03:41:05;;;;;;;10.20;9.23;;;18.40;99.90;;;;;;5071167;28;20462;-69
2021/08/15 03:43:31;;;;;;;9.13;8.20;;;18.40;99.90;;;;;;5071523;28;20464;-70
2021/08/15 03:45:59;;;;;;;10.03;8.90;;;18.40;99.90;;;;;;5071136;28;20489;-69
2021/08/15 03:48:26;;;;;;;8.50;7.50;;;18.30;99.90;;;;;;5070715;28;20455;-69
2021/08/15 03:50:53;;;;;;;9.30;7.63;;;18.30;99.90;;;;;;5071070;28;20981;-69
2021/08/15 03:53:19;;;;;;;9.47;8.60;;;18.30;99.90;;;;;;5070925;28;20458;-69
2021/08/15 03:55:46;;;;;;;8.73;7.93;;;18.20;99.90;;;;;;5071148;28;20486;-70
2021/08/15 03:58:13;;;;;;;9.40;8.13;;;18.20;99.90;;;;;;5070138;28;20853;-69
2021/08/15 04:00:40;;;;;;;9.27;8.37;;;18.20;99.90;;;;;;5070350;28;20458;-69
2021/08/15 04:03:09;;;;;;;10.13;9.13;;;18.20;99.90;;;;;;5230544;22;20495;-70
2021/08/15 04:05:36;;;;;;;9.33;8.50;;;18.10;99.90;;;;;;5070786;28;20855;-70
2021/08/15 04:08:05;;;;;;;9.83;8.93;;;18.10;99.90;;;;;;5070405;28;20465;-71
2021/08/15 04:10:32;;;;;;;9.50;8.70;;;18.10;99.90;;;;;;5069999;28;20459;-70
2021/08/15 04:12:59;;;;;;;8.30;7.43;;;18.10;99.90;;;;;;5070523;28;20461;-70
2021/08/15 04:15:26;;;;;;;10.00;9.00;;;18.10;99.90;;;;;;5069970;28;20459;-70
2021/08/15 04:17:52;;;;;;;10.57;9.57;;;18.10;99.90;;;;;;5069892;28;20483;-69
2021/08/15 04:20:21;;;;;;;9.13;8.27;;;18.10;99.90;;;;;;5070252;28;20459;-70
2021/08/15 04:22:50;;;;;;;9.63;8.63;;;18.10;99.90;;;;;;5070492;28;20513;-69
2021/08/15 04:25:17;;;;;;;9.70;8.70;;;18.10;99.90;;;;;;5070480;28;20462;-71
2021/08/15 04:27:43;;;;;;;10.87;9.87;;;18.10;99.90;;;;;;5069913;28;20458;-71
2021/08/15 04:30:11;;;;;;;10.10;9.10;;;18.10;99.90;;;;;;5070395;28;21110;-70
2021/08/15 04:32:38;;;;;;;15.07;9.60;;;18.10;99.90;;;;;;5070173;28;20462;-70
2021/08/15 04:35:06;;;;;;;10.60;9.50;;;18.10;99.90;;;;;;5070315;28;20467;-71
2021/08/15 04:37:34;;;;;;;9.80;8.90;;;18.10;99.90;;;;;;5069871;28;20495;-70
2021/08/15 04:40:01;;;;;;;9.33;8.50;;;18.10;99.90;;;;;;5070231;28;21026;-71
2021/08/15 04:42:28;;;;;;;11.30;9.70;;;18.00;99.90;;;;;;5070590;28;20462;-70
2021/08/15 04:44:54;;;;;;;10.30;9.20;;;18.00;99.90;;;;;;5070232;28;20462;-70
2021/08/15 04:47:21;;;;;;;11.90;8.60;;;18.00;99.90;;;;;;5069627;28;21383;-70
2021/08/15 04:49:48;;;;;;;10.00;9.00;;;18.00;99.90;;;;;;5069882;28;20454;-70
2021/08/15 04:52:14;;;;;;;10.00;9.10;;;18.00;99.90;;;;;;5069947;28;20469;-71
2021/08/15 04:54:42;;;;;;;10.27;8.83;;;18.00;99.90;;;;;;5069847;28;20463;-70
2021/08/15 04:57:09;;;;;;;11.30;10.10;;;18.00;99.90;;;;;;5068939;28;20482;-70
2021/08/15 04:59:36;;;;;;;9.57;8.60;;;18.00;99.90;;;;;;5069722;28;20465;-70
2021/08/15 05:02:03;;;;;;;10.83;9.73;;;18.10;99.90;;;;;;5069861;28;20466;-70
2021/08/15 05:04:30;;;;;;;11.17;9.57;;;18.10;99.90;;;;;;5069854;28;20906;-70
2021/08/15 05:06:56;;;;;;;9.90;9.00;;;18.10;99.90;;;;;;5069995;28;20491;-70
2021/08/15 05:09:23;;;;;;;9.53;8.63;;;18.10;99.90;;;;;;5069281;28;20463;-70
2021/08/15 05:11:51;;;;;;;10.13;9.03;;;18.10;99.90;;;;;;5069721;28;20458;-70
2021/08/15 05:14:18;;;;;;;9.90;8.93;;;18.10;99.90;;;;;;5058942;28;20837;-71
2021/08/15 05:16:44;;;;;;;11.70;10.20;;;18.20;99.90;;;;;;5056436;28;20482;-71
2021/08/15 05:19:11;;;;;;;10.60;9.60;;;18.20;99.90;;;;;;5059399;28;20483;-70
2021/08/15 05:21:38;;;;;;;10.60;9.53;;;18.20;99.90;;;;;;5055028;28;20467;-70
2021/08/15 05:24:05;;;;;;;11.00;9.87;;;18.30;99.90;;;;;;5057717;28;20459;-71
2021/08/15 05:26:32;;;;;;;11.30;10.20;;;18.30;99.90;;;;;;5057652;28;20486;-70
2021/08/15 05:29:00;;;;;;;10.90;10.00;;;18.30;99.90;;;;;;5059273;28;20450;-71
2021/08/15 05:31:26;;;;;;;10.60;9.50;;;18.30;99.90;;;;;;5059234;28;20951;-71
2021/08/15 05:33:53;;;;;;;11.57;9.77;;;18.30;99.90;;;;;;5057943;28;20456;-71
2021/08/15 05:36:20;;;;;;;11.93;9.83;;;18.40;99.90;;;;;;5051007;28;20491;-71
2021/08/15 05:38:46;;;;;;;11.03;9.87;;;18.40;99.90;;;;;;5048609;28;20491;-70
2021/08/15 05:41:13;;;;;;;11.30;9.70;;;18.50;99.90;;;;;;5049398;28;20986;-71
2021/08/15 05:43:40;;;;;;;10.50;9.47;;;18.60;99.90;;;;;;5049293;28;20860;-70
2021/08/15 05:46:08;;;;;;;11.03;9.60;;;18.70;99.90;;;;;;5049419;28;20891;-71
2021/08/15 05:48:34;;;;;;;12.20;10.10;;;18.70;99.90;;;;;;5048716;28;20464;-70
2021/08/15 05:51:02;;;;;;;11.10;10.00;;;18.80;99.90;;;;;;5049212;28;20482;-70
2021/08/15 05:53:28;;;;;;;11.20;10.20;;;18.80;99.90;;;;;;5048800;28;20563;-70
2021/08/15 05:55:55;;;;;;;10.93;9.93;;;18.90;99.90;;;;;;5048430;28;20483;-70
2021/08/15 05:58:22;;;;;;;10.37;9.37;;;19.00;99.90;;;;;;5048198;28;20483;-70
2021/08/15 06:00:49;;;;;;;11.80;10.57;;;19.00;99.90;;;;;;5049214;28;20466;-70
2021/08/15 06:03:17;;;;;;;12.33;11.03;;;19.10;99.90;;;;;;5048856;28;20749;-70
2021/08/15 06:05:43;;;;;;;14.57;9.20;;;19.20;99.90;;;;;;5048022;28;20494;-70
2021/08/15 06:08:10;;;;;;;10.97;9.90;;;19.30;99.90;;;;;;5048478;28;20455;-69
2021/08/15 06:10:38;;;;;;;11.07;9.97;;;19.40;99.90;;;;;;5048856;28;20474;-70
2021/08/15 06:13:05;;;;;;;10.27;9.27;;;19.50;99.90;;;;;;5049025;28;20467;-70
2021/08/15 06:15:31;;;;;;;11.93;10.47;;;19.60;99.90;;;;;;5049132;28;20487;-70
2021/08/15 06:17:58;;;;;;;11.23;10.23;;;19.70;99.90;;;;;;5048808;28;20479;-69
2021/08/15 06:20:26;;;;;;;13.20;10.20;;;19.80;99.90;;;;;;5048497;28;20471;-70
2021/08/15 06:22:53;;;;;;;10.27;9.23;;;19.90;99.90;;;;;;5048858;28;20979;-71
2021/08/15 06:25:19;;;;;;;10.87;9.87;;;20.00;99.90;;;;;;5048664;28;20455;-71
2021/08/15 06:27:46;;;;;;;14.33;10.80;;;20.20;99.90;;;;;;5051424;28;20459;-70
2021/08/15 06:30:14;;;;;;;11.10;10.00;;;20.30;99.90;;;;;;5052788;28;20463;-70
2021/08/15 06:32:45;;;;;;;10.67;9.57;;;20.30;99.90;;;;;;5051317;28;20459;-71
2021/08/15 06:35:12;;;;;;;10.67;9.67;;;20.40;99.90;;;;;;5052353;28;20943;-71
2021/08/15 06:37:40;;;;;;;11.40;10.30;;;20.50;99.90;;;;;;5052149;28;20467;-70
2021/08/15 06:40:07;;;;;;;10.77;9.63;;;20.60;99.90;;;;;;5052542;28;20470;-70
2021/08/15 06:42:34;;;;;;;12.23;10.07;;;20.70;99.90;;;;;;5052433;28;21237;-71
2021/08/15 06:45:01;;;;;;;10.80;9.80;;;20.80;99.90;;;;;;5052536;28;20463;-69
2021/08/15 06:47:28;;;;;;;10.63;9.20;;;20.90;99.90;;;;;;5051914;28;20506;-71
2021/08/15 06:49:55;;;;;;;11.27;10.00;;;21.00;99.90;;;;;;5051988;28;20547;-71
2021/08/15 06:52:22;;;;;;;10.60;9.60;;;21.10;99.90;;;;;;5051780;28;20451;-70
2021/08/15 06:54:50;;;;;;;11.77;10.30;;;21.20;99.90;;;;;;5050667;28;20470;-70
2021/08/15 06:57:17;;;;;;;16.77;9.70;;;21.30;99.90;;;;;;5051972;28;20491;-71
2021/08/15 06:59:44;;;;;;;11.20;10.10;;;21.40;99.90;;;;;;5051824;28;20583;-72
2021/08/15 07:02:10;;;;;;;10.00;9.10;;;21.50;99.90;;;;;;5051792;28;20474;-71
2021/08/15 07:04:37;;;;;;;10.67;9.60;;;21.50;99.90;;;;;;5051939;28;20459;-71
2021/08/15 07:07:04;;;;;;;11.63;9.10;;;21.60;99.90;;;;;;5051677;28;20490;-71
2021/08/15 07:09:31;;;;;;;12.70;10.13;;;21.70;99.90;;;;;;5051445;28;20542;-70
2021/08/15 07:11:59;;;;;;;10.70;9.60;;;21.80;99.90;;;;;;5051568;28;20477;-71
2021/08/15 07:14:28;;;;;;;11.03;9.37;;;21.90;99.90;;;;;;5051955;28;20459;-71
2021/08/15 07:16:56;;;;;;;11.03;9.97;;;22.00;99.90;;;;;;5051521;28;20494;-71
2021/08/15 07:19:22;;;;;;;11.80;9.77;;;22.10;99.90;;;;;;5051235;28;20523;-71
2021/08/15 07:21:49;;;;;;;9.90;8.90;;;22.20;99.90;;;;;;5051295;28;20977;-69
2021/08/15 07:24:16;;;;;;;9.70;8.70;;;22.30;99.90;;;;;;5051423;28;20465;-71
2021/08/15 07:26:43;;;;;;;9.30;8.40;;;22.40;99.90;;;;;;5051558;28;20482;-71
2021/08/15 07:29:11;;;;;;;10.70;9.70;;;22.40;99.90;;;;;;5051411;28;20459;-70
2021/08/15 07:31:37;;;;;;;10.57;9.57;;;22.50;99.90;;;;;;5051647;28;20455;-71
2021/08/15 07:34:04;;;;;;;12.03;10.60;;;22.60;99.90;;;;;;5051591;28;20464;-71
2021/08/15 07:36:31;;;;;;;11.63;8.70;;;22.70;99.90;;;;;;5051464;28;20476;-71
2021/08/15 07:38:58;;;;;;;10.87;9.87;;;22.80;99.90;;;;;;5050026;28;20486;-71
2021/08/15 07:41:24;;;;;;;10.70;9.20;;;22.90;99.90;;;;;;5051594;28;20460;-70
2021/08/15 07:43:51;;;;;;;10.03;9.03;;;23.00;99.90;;;;;;5051114;28;20467;-71
2021/08/15 07:46:19;;;;;;;10.43;9.33;;;23.00;99.90;;;;;;5051380;28;20479;-71
2021/08/15 07:48:46;;;;;;;8.70;7.80;;;23.10;99.90;;;;;;5050762;28;20486;-71
2021/08/15 07:51:13;;;;;;;13.40;10.00;;;23.20;99.90;;;;;;5051484;28;20463;-71
2021/08/15 07:53:39;;;;;;;9.43;8.53;;;23.30;99.90;;;;;;5051008;28;20459;-70
2021/08/15 07:56:06;;;;;;;9.53;8.63;;;23.30;99.90;;;;;;5051338;28;20479;-71
2021/08/15 07:58:33;;;;;;;10.00;8.97;;;23.40;99.90;;;;;;5050651;28;20475;-71
2021/08/15 08:01:00;;;;;;;10.07;9.00;;;23.40;99.90;;;;;;5051126;28;20498;-71
2021/08/15 08:03:28;;;;;;;10.27;8.93;;;23.40;99.90;;;;;;5050883;28;20480;-70
2021/08/15 08:05:54;;;;;;;9.60;8.67;;;23.40;99.90;;;;;;5050763;28;20487;-70
2021/08/15 08:08:21;;;;;;;11.07;9.17;;;23.60;99.90;;;;;;5050764;28;20451;-71
2021/08/15 08:10:50;;;;;;;11.00;9.20;;;23.70;99.90;;;;;;5050838;28;20893;-71
2021/08/15 08:13:17;;;;;;;12.13;9.53;;;23.80;99.90;;;;;;5051283;28;20470;-71
2021/08/15 08:15:43;;;;;;;9.50;8.60;;;23.90;99.90;;;;;;5050043;28;20479;-71
2021/08/15 08:18:11;;;;;;;10.10;8.90;;;24.10;99.90;;;;;;5050646;28;20951;-72
2021/08/15 08:20:39;;;;;;;10.93;8.90;;;24.20;99.90;;;;;;5050759;28;20468;-72
2021/08/15 08:23:07;;;;;;;10.07;9.17;;;24.30;99.90;;;;;;5050941;28;20471;-72
2021/08/15 08:25:34;;;;;;;9.90;9.00;;;24.30;99.90;;;;;;5050759;28;20999;-72
2021/08/15 08:28:01;;;;;;;11.87;9.77;;;24.40;99.90;;;;;;5049839;28;20475;-71
2021/08/15 08:30:28;;;;;;;9.53;8.63;;;24.50;99.90;;;;;;5050654;28;20463;-71
2021/08/15 08:32:55;;;;;;;9.70;8.77;;;24.70;99.90;;;;;;5050173;28;20455;-72
2021/08/15 08:35:21;;;;;;;9.53;8.63;;;24.80;99.90;;;;;;5050408;28;20467;-71
2021/08/15 08:37:50;;;;;;;13.37;9.53;;;24.90;99.90;;;;;;5049748;28;20874;-71
2021/08/15 08:40:18;;;;;;;10.33;9.23;;;25.00;99.90;;;;;;5050298;28;20683;-71
2021/08/15 08:42:45;;;;;;;10.10;9.10;;;25.20;99.90;;;;;;5049882;28;20459;-72
2021/08/15 08:45:13;;;;;;;8.50;7.70;;;25.20;99.90;;;;;;5048900;28;20467;-72
2021/08/15 08:47:40;;;;;;;8.47;7.67;;;25.30;99.90;;;;;;5049540;28;20463;-72
2021/08/15 08:50:08;;;;;;;9.70;8.73;;;25.30;99.90;;;;;;5049312;28;20562;-71
2021/08/15 08:52:35;;;;;;;9.10;8.30;;;25.30;99.90;;;;;;5049457;28;20455;-71
2021/08/15 08:55:05;;;;;;;9.90;8.97;;;25.40;99.90;;;;;;5049019;28;20474;-71
2021/08/15 08:57:32;;;;;;;9.93;8.97;;;25.50;99.90;;;;;;5048663;28;20490;-72
2021/08/15 09:00:00;;;;;;;9.40;8.50;;;25.60;99.90;;;;;;5049181;28;20845;-72
2021/08/15 09:02:27;;;;;;;9.97;8.87;;;25.70;99.90;;;;;;5049141;28;20796;-72
2021/08/15 09:04:54;;;;;;;9.77;8.90;;;25.80;99.90;;;;;;5048588;28;21273;-73
2021/08/15 09:07:24;;;;;;;11.97;8.60;;;25.90;99.90;;;;;;5048559;28;20471;-77
2021/08/15 09:09:52;;;;;;;10.13;9.13;;;26.00;99.90;;;;;;5048560;28;20487;-70
2021/08/15 09:12:20;;;;;;;10.77;9.67;;;26.20;99.90;;;;;;5050209;28;20466;-70
2021/08/15 09:14:47;;;;;;;9.80;8.80;;;26.30;99.90;;;;;;5048854;28;20468;-70
2021/08/15 09:17:15;;;;;;;9.73;8.73;;;26.40;99.90;;;;;;5049749;28;20480;-73
2021/08/15 09:19:45;;;;;;;10.20;9.03;;;26.40;99.90;;;;;;5048841;28;20487;-73
2021/08/15 09:22:16;;;;;;;9.93;9.03;;;26.50;99.90;;;;;;5049059;28;20985;-73
2021/08/15 09:24:48;;;;;;;9.50;8.70;;;26.60;99.90;;;;;;5048330;28;20526;-72
2021/08/15 09:27:30;;;;;;;9.30;8.40;;;26.70;99.90;;;;;;5047943;28;20748;-72
2021/08/15 09:30:22;;;;;;;8.63;7.83;;;26.80;99.90;;;;;;5047896;28;20822;-73
2021/08/15 09:32:52;;;;;;;10.00;9.10;;;26.90;99.90;;;;;;5047881;28;20451;-73
2021/08/15 09:35:22;;;;;;;8.67;7.87;;;27.00;99.90;;;;;;5048136;28;20456;-73
2021/08/15 09:37:55;;;;;;;10.37;9.40;;;27.10;99.90;;;;;;5047716;28;20454;-72
2021/08/15 09:40:25;;;;;;;10.07;9.07;;;27.20;99.90;;;;;;5048037;28;20491;-73
2021/08/15 09:42:55;;;;;;;9.30;8.30;;;27.20;99.90;;;;;;5047731;28;20460;-73
2021/08/15 09:45:40;;;;;;;9.33;8.53;;;27.20;99.90;;;;;;5047874;28;20603;-73
2021/08/15 09:48:25;;;;;;;9.77;8.77;;;27.40;99.90;;;;;;5047273;28;20470;-72
2021/08/15 09:51:10;;;;;;;8.87;8.07;;;27.30;99.90;;;;;;5047973;28;20492;-72
2021/08/15 09:53:40;;;;;;;10.57;8.53;;;27.20;99.90;;;;;;5047776;28;20461;-73
2021/08/15 09:56:07;;;;;;;10.00;9.00;;;27.20;99.90;;;;;;5048011;28;20517;-73
2021/08/15 09:58:35;;;;;;;9.20;8.40;;;27.10;99.90;;;;;;5047129;28;20451;-72
2021/08/15 10:01:04;;;;;;;9.83;8.93;;;27.00;99.90;;;;;;5048942;28;20468;-73
2021/08/15 10:03:31;;;;;;;9.73;8.73;;;27.10;99.90;;;;;;5047403;28;20566;-72
2021/08/15 10:06:00;;;;;;;10.63;9.57;;;27.20;99.90;;;;;;5056668;28;20512;-72
2021/08/15 10:08:26;;;;;;;8.63;7.80;;;27.30;99.90;;;;;;5055949;28;20613;-71
2021/08/15 10:10:53;;;;;;;9.70;8.90;;;27.50;99.90;;;;;;5054163;28;20513;-71
2021/08/15 10:13:20;;;;;;;9.30;8.50;;;27.50;99.90;;;;;;5054502;28;20464;-74
2021/08/15 10:15:58;;;;;;;8.77;7.97;;;27.40;99.90;;;;;;5053746;28;20578;-73
2021/08/15 10:18:27;;;;;;;10.20;9.20;;;27.30;99.90;;;;;;5054295;28;20455;-71
2021/08/15 10:21:12;;;;;;;10.00;9.00;;;27.30;99.90;;;;;;5053227;28;20494;-72
2021/08/15 10:23:41;;;;;;;9.70;8.70;;;27.30;99.90;;;;;;5053904;28;20534;-72
2021/08/15 10:26:45;;;;;;;9.63;8.63;;;27.40;99.90;;;;;;5052231;28;20487;-72
2021/08/15 10:29:37;;;;;;;10.57;9.10;;;27.50;99.90;;;;;;5052767;28;20456;-72
2021/08/15 10:32:22;;;;;;;9.63;8.20;;;27.80;99.90;;;;;;5053738;28;20979;-71
2021/08/15 10:35:13;;;;;;;9.67;8.70;;;28.00;99.90;;;;;;5052200;28;20463;-72
2021/08/15 10:37:40;;;;;;;10.33;9.43;;;28.10;99.90;;;;;;5047798;28;20456;-71
2021/08/15 10:40:08;;;;;;;11.37;9.10;;;28.20;99.90;;;;;;5054831;28;20477;-72
2021/08/15 10:42:46;;;;;;;10.20;9.17;;;28.20;99.90;;;;;;5054182;28;20468;-72
2021/08/15 10:45:20;;;;;;;12.17;9.60;;;28.20;99.90;;;;;;5052089;28;20842;-71
2021/08/15 10:48:25;;;;;;;12.00;10.07;;;28.20;99.90;;;;;;5119151;22;20498;-71
2021/08/15 10:50:54;;;;;;;9.70;8.70;;;28.10;99.90;;;;;;5030920;28;20484;-72
2021/08/15 10:53:39;;;;;;;9.73;8.80;;;28.10;99.90;;;;;;5034374;28;20467;-70
2021/08/15 10:56:08;;;;;;;12.50;9.70;;;28.10;99.90;;;;;;5030125;28;20508;-71
2021/08/15 10:58:36;;;;;;;9.23;8.33;;;27.90;99.90;;;;;;5033077;28;20943;-71
2021/08/15 11:01:04;;;;;;;9.80;8.70;;;27.70;99.90;;;;;;5032500;28;21078;-70
2021/08/15 11:03:51;;;;;;;10.93;9.63;;;27.40;99.90;;;;;;5032233;28;20551;-71
2021/08/15 11:06:43;;;;;;;10.37;9.07;;;27.30;99.90;;;;;;5032570;28;20481;-71
2021/08/15 11:09:11;;;;;;;11.27;9.10;;;27.10;99.90;;;;;;5033254;28;20501;-73
2021/08/15 11:12:08;;;;;;;10.00;9.10;;;27.20;99.90;;;;;;5033222;28;20488;-72
2021/08/15 11:14:36;;;;;;;10.30;8.50;;;27.30;99.90;;;;;;5029613;28;20465;-72
2021/08/15 11:17:15;;;;;;;9.73;8.83;;;27.50;99.90;;;;;;5029680;28;20773;-72
2021/08/15 11:19:44;;;;;;;9.97;8.93;;;27.80;99.90;;;;;;5029422;28;20492;-72
2021/08/15 11:22:17;;;;;;;8.80;8.00;;;28.10;99.90;;;;;;5029829;28;20467;-72
2021/08/15 11:25:02;;;;;;;12.53;9.27;;;28.30;99.90;;;;;;5029463;28;20458;-72
2021/08/15 11:27:37;;;;;;;8.57;7.63;;;28.40;99.90;;;;;;5028551;28;20496;-72
2021/08/15 11:30:12;;;;;;;10.45;9.40;;;28.30;99.90;;;;;;5022617;28;20927;-72
2021/08/15 11:32:40;;;;;;;12.40;8.93;;;28.20;99.90;;;;;;5029171;28;20302;-72
2021/08/15 11:35:10;;;;;;;9.80;8.90;;;28.30;99.90;;;;;;5029138;28;20471;-72
2021/08/15 11:37:40;;;;;;;9.83;8.87;;;28.40;99.90;;;;;;5027809;28;20899;-72
2021/08/15 11:40:14;;;;;;;8.70;7.80;;;28.40;99.90;;;;;;5029482;28;20481;-72
2021/08/15 11:42:42;;;;;;;9.93;7.90;;;28.20;99.90;;;;;;5029320;28;20465;-72
2021/08/15 11:45:11;;;;;;;9.17;8.17;;;28.00;99.90;;;;;;5029007;28;20474;-72
2021/08/15 11:47:39;;;;;;;9.00;8.10;;;27.80;99.90;;;;;;5027520;28;21010;-72
2021/08/15 11:50:19;;;;;;;9.40;7.93;;;27.60;99.90;;;;;;5028343;28;21013;-72
2021/08/15 11:52:47;;;;;;;7.37;6.67;;;27.40;99.90;;;;;;5028764;28;20558;-71
2021/08/15 11:55:25;;;;;;;9.23;8.03;;;27.30;99.90;;;;;;5028201;28;20459;-72
2021/08/15 11:57:54;;;;;;;8.80;7.60;;;27.10;99.90;;;;;;5027664;28;21113;-72
2021/08/15 12:00:29;;;;;;;7.50;6.90;;;27.00;99.90;;;;;;5027213;28;20556;-71
2021/08/15 12:03:07;;;;;;;9.20;8.27;;;26.90;99.90;;;;;;5017165;28;20463;-72
2021/08/15 12:05:41;;;;;;;11.63;7.13;;;26.80;99.90;;;;;;5027346;28;20486;-72
2021/08/15 12:08:10;;;;;;;9.17;8.27;;;26.60;99.90;;;;;;5024023;28;20463;-72
2021/08/15 12:10:40;;;;;;;9.83;8.83;;;26.50;99.90;;;;;;5018657;28;20479;-72
2021/08/15 12:13:32;;;;;;;10.37;8.87;;;26.30;99.90;;;;;;5008035;28;20466;-72
2021/08/15 12:16:15;;;;;;;11.07;9.97;;;26.20;99.90;;;;;;5003860;28;20485;-72
2021/08/15 12:18:43;;;;;;;10.73;9.83;;;26.10;99.90;;;;;;5015505;28;20877;-72
2021/08/15 12:21:24;;;;;;;10.63;9.60;;;25.90;99.90;;;;;;5018993;28;20552;-72
2021/08/15 12:24:13;;;;;;;11.60;10.40;;;25.80;99.90;;;;;;5024543;28;20528;-72
2021/08/15 12:26:44;;;;;;;10.87;9.87;;;25.70;99.90;;;;;;5001748;28;20529;-72
2021/08/15 12:29:18;;;;;;;11.10;10.10;;;25.60;99.90;;;;;;5023606;28;20489;-72
2021/08/15 12:31:46;;;;;;;12.13;11.00;;;25.40;99.90;;;;;;5026850;28;20850;-72
2021/08/15 12:34:18;;;;;;;12.57;11.27;;;25.40;99.90;;;;;;5012151;28;20457;-72
2021/08/15 12:36:49;;;;;;;12.73;10.97;;;25.20;99.90;;;;;;5020094;28;20483;-72
2021/08/15 12:39:17;;;;;;;13.53;11.90;;;25.10;99.90;;;;;;5010112;28;20459;-72
2021/08/15 12:41:51;;;;;;;12.37;11.27;;;25.00;99.90;;;;;;5020277;28;20463;-72
2021/08/15 12:44:19;;;;;;;13.67;12.30;;;24.90;99.90;;;;;;5025411;28;20458;-71
2021/08/15 12:47:03;;;;;;;14.97;12.30;;;24.80;99.90;;;;;;5026907;28;20476;-71
2021/08/15 12:49:38;;;;;;;17.30;13.47;;;24.70;99.90;;;;;;5027195;28;20534;-71
2021/08/15 12:52:22;;;;;;;18.00;13.43;;;24.60;99.90;;;;;;5027962;28;20463;-71